Time;durP1;ratioP1;P1;durP2;ratioP2;P2;SDS_P1;SDS_P2;PMS_P1;PMS_P2;Temp;Humidity;BMP_temperature;BMP_pressure;BME280_temperature;BME280_humidity;BME280_pressure;Samples;Min_cycle;Max_cycle;Signal;HPM_P1;HPM_P2
2023/05/31 00:01:44;;;;;;;;;;;15.50;92.20;;;;;;4971123;28;19932;-65
2023/05/31 00:04:16;;;;;;;;;;;15.40;91.90;;;;;;4971840;28;20344;-66
2023/05/31 00:06:48;;;;;;;;;;;15.40;92.10;;;;;;4952119;28;19927;-65
2023/05/31 00:09:20;;;;;;;;;;;15.40;92.10;;;;;;4970147;28;19930;-65
2023/05/31 00:11:47;;;;;;;;;;;15.40;92.30;;;;;;4972475;28;20017;-66
2023/05/31 00:14:14;;;;;;;;;;;15.40;92.20;;;;;;4970014;28;20008;-66
2023/05/31 00:16:46;;;;;;;;;;;15.30;92.20;;;;;;4969573;28;19930;-67
2023/05/31 00:19:17;;;;;;;;;;;15.30;92.10;;;;;;4954283;28;19937;-66
2023/05/31 00:21:49;;;;;;;;;;;15.20;91.90;;;;;;4971168;28;19933;-66
2023/05/31 00:24:16;;;;;;;;;;;15.20;91.50;;;;;;4972039;28;20024;-66
2023/05/31 00:26:48;;;;;;;;;;;15.10;91.80;;;;;;4971158;28;19933;-66
2023/05/31 00:29:20;;;;;;;;;;;15.10;91.70;;;;;;4968673;28;19942;-66
2023/05/31 00:31:52;;;;;;;;;;;15.10;91.90;;;;;;4952655;28;20465;-66
2023/05/31 00:34:24;;;;;;;;;;;15.10;91.50;;;;;;4972000;28;19930;-66
2023/05/31 00:36:55;;;;;;;;;;;15.10;91.50;;;;;;4972165;28;20398;-65
2023/05/31 00:39:27;;;;;;;;;;;15.10;91.70;;;;;;4953539;28;19926;-66
2023/05/31 00:41:59;;;;;;;;;;;15.00;91.90;;;;;;4969518;28;20020;-67
2023/05/31 00:44:31;;;;;;;;;;;15.00;92.00;;;;;;4966412;28;19927;-66
2023/05/31 00:47:03;;;;;;;;;;;14.90;91.80;;;;;;4953843;28;19930;-66
2023/05/31 00:49:35;;;;;;;;;;;14.90;91.90;;;;;;4953843;28;20450;-66
2023/05/31 00:52:07;;;;;;;;;;;14.90;91.80;;;;;;4973427;28;19930;-66
2023/05/31 00:54:39;;;;;;;;;;;14.80;92.10;;;;;;4956543;28;19937;-66
2023/05/31 00:57:11;;;;;;;;;;;14.80;92.10;;;;;;4970788;28;20029;-67
2023/05/31 00:59:43;;;;;;;;;;;14.80;92.20;;;;;;4951726;28;19926;-66
2023/05/31 01:02:17;;;;;;;;;;;14.70;91.90;;;;;;4953530;28;19926;-66
2023/05/31 01:04:49;;;;;;;;;;;14.60;91.90;;;;;;4955966;28;19926;-66
2023/05/31 01:07:21;;;;;;;;;;;14.60;91.50;;;;;;4957176;28;19934;-66
2023/05/31 01:09:53;;;;;;;;;;;14.50;91.60;;;;;;4957265;28;19926;-64
2023/05/31 01:12:28;;;;;;;;;;;14.50;91.90;;;;;;4951079;28;19953;-64
2023/05/31 01:15:09;;;;;;;;;;;14.50;91.60;;;;;;4956428;28;20303;-64
2023/05/31 01:18:09;;;;;;;;;;;14.40;91.50;;;;;;4953992;28;20348;-65
2023/05/31 01:20:43;;;;;;;;;;;14.40;91.90;;;;;;4972914;28;20317;-64
2023/05/31 01:23:34;;;;;;;;;;;14.40;92.00;;;;;;4956849;28;19933;-64
2023/05/31 01:26:25;;;;;;;;;;;14.30;91.90;;;;;;4948345;28;20302;-64
2023/05/31 01:29:00;;;;;;;;;;;14.30;91.80;;;;;;4947063;28;20406;-64
2023/05/31 01:31:27;;;;;;;;;;;14.20;91.50;;;;;;4948817;28;19985;-64
2023/05/31 01:33:59;;;;;;;;;;;14.20;91.70;;;;;;4957407;28;19930;-64
2023/05/31 01:36:26;;;;;;;;;;;14.20;91.50;;;;;;4972909;28;19996;-64
2023/05/31 01:38:58;;;;;;;;;;;14.20;91.50;;;;;;4974062;28;20421;-64
2023/05/31 01:41:32;;;;;;;;;;;14.20;91.30;;;;;;4955498;28;20351;-64
2023/05/31 01:43:59;;;;;;;;;;;14.20;91.10;;;;;;4972734;28;20544;-65
2023/05/31 01:46:33;;;;;;;;;;;14.20;91.20;;;;;;4955862;28;20342;-64
2023/05/31 01:49:05;;;;;;;;;;;14.20;91.20;;;;;;4973819;28;19930;-65
2023/05/31 01:51:37;;;;;;;;;;;14.20;91.30;;;;;;4950946;28;20390;-64
2023/05/31 01:54:09;;;;;;;;;;;14.10;91.40;;;;;;4946447;28;19926;-64
2023/05/31 01:56:42;;;;;;;;;;;14.10;91.40;;;;;;4955000;28;19933;-64
2023/05/31 01:59:14;;;;;;;;;;;14.00;91.10;;;;;;4947097;28;20457;-64
2023/05/31 02:01:47;;;;;;;;;;;14.00;91.30;;;;;;4954683;28;19946;-65
2023/05/31 02:04:19;;;;;;;;;;;14.00;91.30;;;;;;4939855;28;19930;-64
2023/05/31 02:06:51;;;;;;;;;;;14.00;91.40;;;;;;4973487;28;19933;-64
2023/05/31 02:09:24;;;;;;;;;;;13.90;91.30;;;;;;4956062;28;19942;-64
2023/05/31 02:11:56;;;;;;;;;;;13.90;91.40;;;;;;4947820;28;19926;-64
2023/05/31 02:14:23;;;;;;;;;;;13.90;91.40;;;;;;4946801;28;20013;-64
2023/05/31 02:16:54;;;;;;;;;;;13.80;91.10;;;;;;4956000;28;20418;-64
2023/05/31 02:19:26;;;;;;;;;;;13.70;91.20;;;;;;4955274;28;20427;-64
2023/05/31 02:21:58;;;;;;;;;;;13.70;91.30;;;;;;4952942;28;19964;-64
2023/05/31 02:24:30;;;;;;;;;;;13.70;91.70;;;;;;4954038;28;19957;-64
2023/05/31 02:27:02;;;;;;;;;;;13.70;91.70;;;;;;4952667;28;20402;-64
2023/05/31 02:29:34;;;;;;;;;;;13.70;91.70;;;;;;4951280;28;19934;-64
2023/05/31 02:32:06;;;;;;;;;;;13.60;92.00;;;;;;4953400;28;19966;-64
2023/05/31 02:34:37;;;;;;;;;;;13.60;92.10;;;;;;4970489;28;20048;-64
2023/05/31 02:37:04;;;;;;;;;;;13.50;92.00;;;;;;4946585;28;19970;-66
2023/05/31 02:39:36;;;;;;;;;;;13.50;92.00;;;;;;4953846;28;19927;-64
2023/05/31 02:42:10;;;;;;;;;;;13.50;92.20;;;;;;4945240;28;19926;-65
2023/05/31 02:44:41;;;;;;;;;;;13.50;92.20;;;;;;4955366;28;20016;-64
2023/05/31 02:47:08;;;;;;;;;;;13.40;92.30;;;;;;4930356;28;19926;-64
2023/05/31 02:49:35;;;;;;;;;;;13.40;92.30;;;;;;4970398;28;19934;-64
2023/05/31 02:52:02;;;;;;;;;;;13.40;92.20;;;;;;4939698;28;19930;-64
2023/05/31 02:55:07;;;;;;;;;;;13.40;92.10;;;;;;4967251;28;19926;-65
2023/05/31 02:57:59;;;;;;;;;;;13.30;92.20;;;;;;4972415;28;19981;-64
2023/05/31 03:00:26;;;;;;;;;;;13.30;92.00;;;;;;4971139;28;20500;-64
2023/05/31 03:02:58;;;;;;;;;;;13.30;91.90;;;;;;4972706;28;19934;-67
2023/05/31 03:05:54;;;;;;;;;;;13.30;92.10;;;;;;4969097;28;19926;-67
2023/05/31 03:08:25;;;;;;;;;;;13.30;92.30;;;;;;4954294;28;20363;-67
2023/05/31 03:10:57;;;;;;;;;;;13.30;92.40;;;;;;4969826;28;20021;-66
2023/05/31 03:13:29;;;;;;;;;;;13.30;92.60;;;;;;4952561;28;20029;-66
2023/05/31 03:16:02;;;;;;;;;;;13.30;92.60;;;;;;4970188;28;19930;-67
2023/05/31 03:18:29;;;;;;;;;;;13.20;92.60;;;;;;4970747;28;19926;-67
2023/05/31 03:21:01;;;;;;;;;;;13.20;92.80;;;;;;4955578;28;20046;-67
2023/05/31 03:23:33;;;;;;;;;;;13.20;92.90;;;;;;4953503;28;19985;-66
2023/05/31 03:26:05;;;;;;;;;;;13.20;93.00;;;;;;4969330;28;19933;-66
2023/05/31 03:28:36;;;;;;;;;;;13.10;93.00;;;;;;4972327;28;19926;-71
2023/05/31 03:31:08;;;;;;;;;;;13.10;93.00;;;;;;4952277;28;20017;-66
2023/05/31 03:33:40;;;;;;;;;;;13.30;95.60;;;;;;4955657;28;20386;-66
2023/05/31 03:36:12;;;;;;;;;;;13.50;93.50;;;;;;4970901;28;19973;-66
2023/05/31 03:38:44;;;;;;;;;;;13.50;93.00;;;;;;4956426;28;20497;-64
2023/05/31 03:41:12;;;;;;;;;;;13.50;92.80;;;;;;4949391;28;19934;-64
2023/05/31 03:43:44;;;;;;;;;;;13.40;92.50;;;;;;4947446;28;19988;-64
2023/05/31 03:46:17;;;;;;;;;;;13.30;92.50;;;;;;4971944;28;19926;-64
2023/05/31 03:48:48;;;;;;;;;;;13.20;92.80;;;;;;4970176;28;19976;-64
2023/05/31 03:51:20;;;;;;;;;;;13.10;93.00;;;;;;4955093;28;19927;-64
2023/05/31 03:53:52;;;;;;;;;;;13.10;93.30;;;;;;4955570;28;19985;-64
2023/05/31 03:56:20;;;;;;;;;;;13.10;92.90;;;;;;4948762;29;19933;-64
2023/05/31 03:58:47;;;;;;;;;;;13.10;93.20;;;;;;4948748;29;20403;-64
2023/05/31 04:01:20;;;;;;;;;;;13.00;93.00;;;;;;4968734;28;19926;-64
2023/05/31 04:03:52;;;;;;;;;;;13.00;93.30;;;;;;4953329;28;19965;-64
2023/05/31 04:06:20;;;;;;;;;;;12.90;93.30;;;;;;4965123;28;19926;-64
2023/05/31 04:08:53;;;;;;;;;;;13.00;93.50;;;;;;4954056;28;19930;-64
2023/05/31 04:11:20;;;;;;;;;;;13.00;93.40;;;;;;4946095;28;19926;-64
2023/05/31 04:13:53;;;;;;;;;;;13.00;93.40;;;;;;4952336;28;20370;-64
2023/05/31 04:16:27;;;;;;;;;;;12.90;93.50;;;;;;4953063;28;19998;-64
2023/05/31 04:18:59;;;;;;;;;;;12.90;93.60;;;;;;4969477;28;19926;-64
2023/05/31 04:21:32;;;;;;;;;;;12.90;93.80;;;;;;4958855;28;19973;-64
2023/05/31 04:24:04;;;;;;;;;;;12.90;93.60;;;;;;4971413;23;19910;-67
2023/05/31 04:26:37;;;;;;;;;;;12.90;93.60;;;;;;4955087;28;19930;-67
2023/05/31 04:29:10;;;;;;;;;;;12.80;93.60;;;;;;4968991;28;19933;-67
2023/05/31 04:31:37;;;;;;;;;;;12.90;93.60;;;;;;4957848;28;20012;-66
2023/05/31 04:34:10;;;;;;;;;;;12.80;93.60;;;;;;4964475;28;19933;-66
2023/05/31 04:36:42;;;;;;;;;;;12.90;94.00;;;;;;4951232;28;20032;-66
2023/05/31 04:39:19;;;;;;;;;;;12.90;93.60;;;;;;4966787;28;19966;-66
2023/05/31 04:41:55;;;;;;;;;;;12.90;94.00;;;;;;4948758;28;19958;-66
2023/05/31 04:44:27;;;;;;;;;;;12.90;94.10;;;;;;4954743;28;19926;-66
2023/05/31 04:46:59;;;;;;;;;;;12.90;94.00;;;;;;4957288;28;19926;-66
2023/05/31 04:49:27;;;;;;;;;;;12.90;94.00;;;;;;4955835;28;19989;-66
2023/05/31 04:51:59;;;;;;;;;;;12.90;94.30;;;;;;4956403;28;20314;-67
2023/05/31 04:54:26;;;;;;;;;;;12.90;94.20;;;;;;4956657;28;20010;-66
2023/05/31 04:56:59;;;;;;;;;;;12.90;94.30;;;;;;4947834;28;20490;-66
2023/05/31 04:59:32;;;;;;;;;;;13.00;94.40;;;;;;4932900;28;19926;-66
2023/05/31 05:02:03;;;;;;;;;;;13.00;94.60;;;;;;4963495;28;19930;-66
2023/05/31 05:04:36;;;;;;;;;;;13.00;94.40;;;;;;4944169;28;19926;-66
2023/05/31 05:07:09;;;;;;;;;;;13.00;94.80;;;;;;4954590;28;19937;-66
2023/05/31 05:09:41;;;;;;;;;;;13.00;94.60;;;;;;4943240;29;19937;-66
2023/05/31 05:12:13;;;;;;;;;;;13.10;95.20;;;;;;4954779;28;19933;-66
2023/05/31 05:14:46;;;;;;;;;;;13.10;95.10;;;;;;4953182;28;19926;-67
2023/05/31 05:17:18;;;;;;;;;;;13.10;95.20;;;;;;4943288;28;19926;-66
2023/05/31 05:19:50;;;;;;;;;;;13.20;95.40;;;;;;4956301;28;19965;-67
2023/05/31 05:22:23;;;;;;;;;;;13.20;95.60;;;;;;4956113;28;20295;-66
2023/05/31 05:24:56;;;;;;;;;;;13.30;95.40;;;;;;4961776;28;20030;-66
2023/05/31 05:27:28;;;;;;;;;;;13.30;95.60;;;;;;4955889;28;19936;-67
2023/05/31 05:30:00;;;;;;;;;;;13.40;95.20;;;;;;4957060;28;19930;-66
2023/05/31 05:32:32;;;;;;;;;;;13.40;95.40;;;;;;4946425;28;20284;-68
2023/05/31 05:35:05;;;;;;;;;;;13.50;95.30;;;;;;4939251;28;20441;-67
2023/05/31 05:37:32;;;;;;;;;;;13.50;95.20;;;;;;4957352;28;19934;-68
2023/05/31 05:40:06;;;;;;;;;;;13.60;95.20;;;;;;4970693;28;20591;-66
2023/05/31 05:42:36;;;;;;;;;;;13.60;95.80;;;;;;4968998;28;19930;-68
2023/05/31 05:45:04;;;;;;;;;;;13.70;95.50;;;;;;4950855;28;20704;-67
2023/05/31 05:47:37;;;;;;;;;;;13.70;95.10;;;;;;4932079;28;20458;-66
2023/05/31 05:50:09;;;;;;;;;;;13.80;95.50;;;;;;4955115;28;19926;-68
2023/05/31 05:52:41;;;;;;;;;;;13.90;95.20;;;;;;4956595;28;20025;-67
2023/05/31 05:55:13;;;;;;;;;;;14.00;95.20;;;;;;4966598;28;19936;-66
2023/05/31 05:57:40;;;;;;;;;;;14.10;95.00;;;;;;4954463;28;19927;-66
2023/05/31 06:00:26;;;;;;;;;;;14.10;95.20;;;;;;4964548;28;19933;-67
2023/05/31 06:02:58;;;;;;;;;;;14.20;95.20;;;;;;4956967;28;20552;-66
2023/05/31 06:05:30;;;;;;;;;;;14.30;95.30;;;;;;4953673;28;20019;-66
2023/05/31 06:08:03;;;;;;;;;;;14.40;95.20;;;;;;4928591;28;19977;-67
2023/05/31 06:10:36;;;;;;;;;;;14.40;95.50;;;;;;4961401;28;19950;-66
2023/05/31 06:13:04;;;;;;;;;;;14.50;95.30;;;;;;4953965;28;19926;-66
2023/05/31 06:15:36;;;;;;;;;;;14.60;95.30;;;;;;4950687;28;20016;-67
2023/05/31 06:18:09;;;;;;;;;;;14.70;95.20;;;;;;4953929;28;19985;-67
2023/05/31 06:20:42;;;;;;;;;;;14.80;94.80;;;;;;4957539;28;19934;-68
2023/05/31 06:23:14;;;;;;;;;;;14.90;95.10;;;;;;4953358;28;20045;-67
2023/05/31 06:25:41;;;;;;;;;;;15.00;94.30;;;;;;4954336;28;20026;-67
2023/05/31 06:28:13;;;;;;;;;;;15.10;94.50;;;;;;4954283;28;20028;-66
2023/05/31 06:30:42;;;;;;;;;;;15.10;94.70;;;;;;4957484;28;20017;-67
2023/05/31 06:33:13;;;;;;;;;;;15.20;94.80;;;;;;4955603;28;19926;-68
2023/05/31 06:35:45;;;;;;;;;;;15.30;95.10;;;;;;4954422;28;20398;-68
2023/05/31 06:38:15;;;;;;;;;;;15.40;95.50;;;;;;4954474;28;20288;-66
2023/05/31 06:40:48;;;;;;;;;;;15.40;94.00;;;;;;4953029;28;20318;-66
2023/05/31 06:43:20;;;;;;;;;;;15.50;94.10;;;;;;4955519;28;19969;-66
2023/05/31 06:46:12;;;;;;;;;;;15.60;94.40;;;;;;4952374;28;20407;-67
2023/05/31 06:49:02;;;;;;;;;;;15.70;94.30;;;;;;4968903;28;19941;-66
2023/05/31 06:51:57;;;;;;;;;;;15.80;94.40;;;;;;4927828;28;19926;-67
2023/05/31 06:54:59;;;;;;;;;;;15.90;94.10;;;;;;4949429;28;19926;-67
2023/05/31 06:57:33;;;;;;;;;;;16.10;93.40;;;;;;4939346;28;20383;-67
2023/05/31 06:59:59;;;;;;;;;;;16.20;93.50;;;;;;4953935;28;19927;-67
2023/05/31 07:02:31;;;;;;;;;;;16.30;93.40;;;;;;4965681;28;19938;-66
2023/05/31 07:05:04;;;;;;;;;;;16.50;93.00;;;;;;4961535;28;19957;-66
2023/05/31 07:07:36;;;;;;;;;;;16.50;93.30;;;;;;4955345;28;19933;-66
2023/05/31 07:10:08;;;;;;;;;;;16.70;93.50;;;;;;4950967;28;19930;-68
2023/05/31 07:12:40;;;;;;;;;;;16.70;92.60;;;;;;4952416;28;20303;-68
2023/05/31 07:15:12;;;;;;;;;;;16.80;92.60;;;;;;4952697;28;19962;-66
2023/05/31 07:17:44;;;;;;;;;;;16.90;92.50;;;;;;4952397;28;19931;-68
2023/05/31 07:20:16;;;;;;;;;;;17.00;93.00;;;;;;4953580;28;19933;-67
2023/05/31 07:22:43;;;;;;;;;;;17.20;92.90;;;;;;4970381;28;19934;-68
2023/05/31 07:25:15;;;;;;;;;;;17.20;92.70;;;;;;4970036;28;19937;-68
2023/05/31 07:27:47;;;;;;;;;;;17.40;92.20;;;;;;4970405;28;19965;-67
2023/05/31 07:30:19;;;;;;;;;;;17.50;91.90;;;;;;4965143;28;20035;-67
2023/05/31 07:32:51;;;;;;;;;;;17.60;92.10;;;;;;4959858;28;20040;-67
2023/05/31 07:35:23;;;;;;;;;;;17.70;91.70;;;;;;4963322;28;19926;-66
2023/05/31 07:37:54;;;;;;;;;;;17.80;91.80;;;;;;4950391;28;19930;-66
2023/05/31 07:40:26;;;;;;;;;;;17.90;90.90;;;;;;4956185;28;19954;-66
2023/05/31 07:42:58;;;;;;;;;;;17.90;91.30;;;;;;4953035;28;20009;-70
2023/05/31 07:45:30;;;;;;;;;;;18.10;91.90;;;;;;4965742;28;19926;-67
2023/05/31 07:48:02;;;;;;;;;;;18.20;91.80;;;;;;4966957;28;19926;-67
2023/05/31 07:50:34;;;;;;;;;;;18.30;90.90;;;;;;4953659;28;19973;-66
2023/05/31 07:53:06;;;;;;;;;;;18.30;91.10;;;;;;4963086;28;19933;-66
2023/05/31 07:55:38;;;;;;;;;;;18.40;91.90;;;;;;4965684;28;20391;-66
2023/05/31 07:58:06;;;;;;;;;;;18.60;91.00;;;;;;4964965;28;20312;-67
2023/05/31 08:00:33;;;;;;;;;;;18.70;91.20;;;;;;4959465;28;19927;-68
2023/05/31 08:03:00;;;;;;;;;;;18.80;90.60;;;;;;4961614;28;19998;-68
2023/05/31 08:05:32;;;;;;;;;;;19.00;90.00;;;;;;4961504;28;19930;-66
2023/05/31 08:08:05;;;;;;;;;;;19.00;89.70;;;;;;4975841;28;20310;-66
2023/05/31 08:10:37;;;;;;;;;;;19.10;88.60;;;;;;4947486;28;19927;-68
2023/05/31 08:13:10;;;;;;;;;;;19.20;89.30;;;;;;4968491;28;20041;-67
2023/05/31 08:15:42;;;;;;;;;;;19.30;88.50;;;;;;4969318;28;19926;-67
2023/05/31 08:18:14;;;;;;;;;;;19.40;88.10;;;;;;4959937;28;19936;-67
2023/05/31 08:20:46;;;;;;;;;;;19.50;89.70;;;;;;4971296;28;19937;-67
2023/05/31 08:23:18;;;;;;;;;;;19.50;89.50;;;;;;4960732;28;19930;-67
2023/05/31 08:25:51;;;;;;;;;;;19.60;89.90;;;;;;4975364;28;19932;-67
2023/05/31 08:28:23;;;;;;;;;;;19.70;87.30;;;;;;4977738;28;19926;-67
2023/05/31 08:30:55;;;;;;;;;;;19.80;87.70;;;;;;4960291;28;19936;-67
2023/05/31 08:33:31;;;;;;;;;;;19.90;88.80;;;;;;4963714;28;19926;-67
2023/05/31 08:36:04;;;;;;;;;;;20.00;87.10;;;;;;4959320;28;19927;-67
2023/05/31 08:38:35;;;;;;;;;;;20.10;87.40;;;;;;4965959;28;19930;-67
2023/05/31 08:41:07;;;;;;;;;;;20.20;87.70;;;;;;4959448;28;20009;-66
2023/05/31 08:43:40;;;;;;;;;;;20.30;86.90;;;;;;4968646;28;19927;-67
2023/05/31 08:46:07;;;;;;;;;;;20.30;86.30;;;;;;4966385;28;20034;-66
2023/05/31 08:48:42;;;;;;;;;;;20.40;87.20;;;;;;4958863;28;19981;-67
2023/05/31 08:51:15;;;;;;;;;;;20.50;87.00;;;;;;4958748;28;19926;-66
2023/05/31 08:53:47;;;;;;;;;;;20.60;86.00;;;;;;4977568;28;20016;-66
2023/05/31 08:56:23;;;;;;;;;;;20.70;88.00;;;;;;4961097;28;19926;-67
2023/05/31 08:58:50;;;;;;;;;;;20.80;86.10;;;;;;4966872;28;19930;-67
2023/05/31 09:01:23;;;;;;;;;;;20.90;85.60;;;;;;4960026;28;20422;-68
2023/05/31 09:03:55;;;;;;;;;;;21.00;86.10;;;;;;4954299;28;20041;-66
2023/05/31 09:06:23;;;;;;;;;;;21.10;84.90;;;;;;4966413;28;19931;-66
2023/05/31 09:08:50;;;;;;;;;;;21.20;84.30;;;;;;4955689;28;20029;-66
2023/05/31 09:11:17;;;;;;;;;;;21.30;85.40;;;;;;4955955;28;19926;-67
2023/05/31 09:13:49;;;;;;;;;;;21.40;84.80;;;;;;4955132;28;20016;-65
2023/05/31 09:16:24;;;;;;;;;;;21.40;83.80;;;;;;4941838;28;19927;-66
2023/05/31 09:18:59;;;;;;;;;;;21.40;83.20;;;;;;4953140;28;19926;-66
2023/05/31 09:21:41;;;;;;;;;;;21.50;81.90;;;;;;4970107;28;19926;-67
2023/05/31 09:24:10;;;;;;;;;;;21.60;83.10;;;;;;4969582;28;19931;-67
2023/05/31 09:26:47;;;;;;;;;;;21.70;82.80;;;;;;4955811;28;19934;-67
2023/05/31 09:29:15;;;;;;;;;;;21.70;80.10;;;;;;4964477;28;20406;-66
2023/05/31 09:31:43;;;;;;;;;;;21.70;79.20;;;;;;4973716;28;19926;-67
2023/05/31 09:34:31;;;;;;;;;;;21.70;77.50;;;;;;4954463;28;19936;-67
2023/05/31 09:36:58;;;;;;;;;;;21.80;76.70;;;;;;4971892;28;20468;-67
2023/05/31 09:39:31;;;;;;;;;;;21.90;77.40;;;;;;4946820;28;20414;-67
2023/05/31 09:41:59;;;;;;;;;;;22.00;78.50;;;;;;4957715;28;20377;-67
2023/05/31 09:44:30;;;;;;;;;;;22.00;76.60;;;;;;4957740;28;19934;-67
2023/05/31 09:47:08;;;;;;;;;;;22.10;74.10;;;;;;4958029;28;19937;-67
2023/05/31 09:49:43;;;;;;;;;;;22.20;74.40;;;;;;4961752;28;19949;-67
2023/05/31 09:52:15;;;;;;;;;;;22.40;73.70;;;;;;4938408;29;20013;-67
2023/05/31 09:54:47;;;;;;;;;;;22.40;75.30;;;;;;4968099;28;19926;-67
2023/05/31 09:57:29;;;;;;;;;;;22.50;74.10;;;;;;4955174;28;19981;-67
2023/05/31 10:00:06;;;;;;;;;;;22.60;73.40;;;;;;4947744;28;19926;-66
2023/05/31 10:02:38;;;;;;;;;;;22.70;74.20;;;;;;4964850;28;20005;-66
2023/05/31 10:05:14;;;;;;;;;;;22.90;71.50;;;;;;4952923;28;19926;-66
2023/05/31 10:07:47;;;;;;;;;;;22.90;70.60;;;;;;4940705;28;19938;-65
2023/05/31 10:10:15;;;;;;;;;;;23.00;71.40;;;;;;4956331;28;19939;-67
2023/05/31 10:12:50;;;;;;;;;;;23.10;71.40;;;;;;4966212;28;19926;-67
2023/05/31 10:15:22;;;;;;;;;;;23.10;71.80;;;;;;4955292;28;19930;-66
2023/05/31 10:17:59;;;;;;;;;;;23.20;71.20;;;;;;4967847;28;20283;-67
2023/05/31 10:20:51;;;;;;;;;;;23.30;70.60;;;;;;4964982;28;19965;-66
2023/05/31 10:23:25;;;;;;;;;;;23.40;70.70;;;;;;4965422;28;19937;-68
2023/05/31 10:26:14;;;;;;;;;;;23.50;70.90;;;;;;4953542;28;20037;-66
2023/05/31 10:28:58;;;;;;;;;;;23.60;71.10;;;;;;4975959;23;19932;-65
2023/05/31 10:31:29;;;;;;;;;;;23.70;69.50;;;;;;4968175;28;20004;-64
2023/05/31 10:34:15;;;;;;;;;;;23.70;67.70;;;;;;4971873;28;19926;-64
2023/05/31 10:36:47;;;;;;;;;;;23.80;70.30;;;;;;4946499;28;19934;-65
2023/05/31 10:39:28;;;;;;;;;;;23.90;68.10;;;;;;4967124;28;20428;-66
2023/05/31 10:42:06;;;;;;;;;;;23.90;68.90;;;;;;4948961;28;19934;-66
2023/05/31 10:44:59;;;;;;;;;;;23.90;67.20;;;;;;4950389;28;19930;-67
2023/05/31 10:47:36;;;;;;;;;;;23.90;65.80;;;;;;4964323;28;19926;-66
2023/05/31 10:50:08;;;;;;;;;;;24.00;67.60;;;;;;4966442;28;19937;-67
2023/05/31 10:52:40;;;;;;;;;;;24.00;66.50;;;;;;4951306;28;19930;-67
2023/05/31 10:55:15;;;;;;;;;;;24.10;65.80;;;;;;4957755;28;19933;-66
2023/05/31 10:57:53;;;;;;;;;;;24.20;67.40;;;;;;4947791;28;19926;-67
2023/05/31 11:00:25;;;;;;;;;;;24.20;65.50;;;;;;4972979;28;19926;-67
2023/05/31 11:02:58;;;;;;;;;;;24.20;66.00;;;;;;4971091;28;19938;-67
2023/05/31 11:05:30;;;;;;;;;;;24.40;65.70;;;;;;4951169;28;19926;-66
2023/05/31 11:08:12;;;;;;;;;;;24.40;63.80;;;;;;4960148;28;20496;-67
2023/05/31 11:10:43;;;;;;;;;;;24.50;61.80;;;;;;4962009;28;19937;-67
2023/05/31 11:13:16;;;;;;;;;;;24.50;61.80;;;;;;4946588;28;20283;-66
2023/05/31 11:15:48;;;;;;;;;;;24.50;62.20;;;;;;4962466;28;19934;-67
2023/05/31 11:18:23;;;;;;;;;;;24.50;61.90;;;;;;4958444;28;19937;-66
2023/05/31 11:20:55;;;;;;;;;;;24.70;62.50;;;;;;4940250;28;20358;-67
2023/05/31 11:23:31;;;;;;;;;;;24.80;63.00;;;;;;4952317;28;19926;-67
2023/05/31 11:26:06;;;;;;;;;;;24.90;61.70;;;;;;4954598;28;20021;-67
2023/05/31 11:28:57;;;;;;;;;;;25.00;60.00;;;;;;4939605;28;19931;-67
2023/05/31 11:31:47;;;;;;;;;;;24.90;57.90;;;;;;4967594;28;19925;-67
2023/05/31 11:34:27;;;;;;;;;;;24.90;62.80;;;;;;4963008;28;20355;-67
2023/05/31 11:36:56;;;;;;;;;;;25.00;60.50;;;;;;4961650;28;19993;-67
2023/05/31 11:39:29;;;;;;;;;;;25.00;60.50;;;;;;4964497;28;19965;-67
2023/05/31 11:42:02;;;;;;;;;;;25.10;61.00;;;;;;4945496;28;19930;-67
2023/05/31 11:44:35;;;;;;;;;;;25.20;59.50;;;;;;4961348;28;19927;-67
2023/05/31 11:47:05;;;;;;;;;;;25.30;59.70;;;;;;4962524;28;20739;-67
2023/05/31 11:49:37;;;;;;;;;;;25.30;59.50;;;;;;4953247;28;20302;-67
2023/05/31 11:52:14;;;;;;;;;;;25.40;58.20;;;;;;4955301;28;19930;-67
2023/05/31 11:54:47;;;;;;;;;;;25.40;58.20;;;;;;4953846;28;19965;-67
2023/05/31 11:57:20;;;;;;;;;;;25.50;58.20;;;;;;4958817;28;19969;-67
2023/05/31 11:59:52;;;;;;;;;;;25.60;59.00;;;;;;4948089;28;19930;-67
2023/05/31 12:02:24;;;;;;;;;;;25.70;58.20;;;;;;4931361;28;20003;-67
2023/05/31 12:04:57;;;;;;;;;;;25.60;58.90;;;;;;4951418;28;19926;-67
2023/05/31 12:07:24;;;;;;;;;;;25.60;58.20;;;;;;4969178;28;20413;-67
2023/05/31 12:09:56;;;;;;;;;;;25.60;56.20;;;;;;4968136;28;20390;-67
2023/05/31 12:12:27;;;;;;;;;;;25.70;56.50;;;;;;4961063;28;19941;-67
2023/05/31 12:15:01;;;;;;;;;;;25.80;55.60;;;;;;4967648;28;19926;-67
2023/05/31 12:17:33;;;;;;;;;;;25.80;57.10;;;;;;4969310;28;20360;-67
2023/05/31 12:20:05;;;;;;;;;;;25.90;57.10;;;;;;4948511;28;20406;-67
2023/05/31 12:22:37;;;;;;;;;;;25.70;58.00;;;;;;4950383;28;19974;-67
2023/05/31 12:25:09;;;;;;;;;;;25.80;56.30;;;;;;4965347;28;20021;-67
2023/05/31 12:27:41;;;;;;;;;;;25.80;57.80;;;;;;4962030;28;19927;-67
2023/05/31 12:30:19;;;;;;;;;;;25.80;55.20;;;;;;4943715;28;19993;-67
2023/05/31 12:32:46;;;;;;;;;;;25.90;54.80;;;;;;4964577;28;19926;-67
2023/05/31 12:35:18;;;;;;;;;;;26.00;55.90;;;;;;4966367;28;19930;-67
2023/05/31 12:37:51;;;;;;;;;;;26.00;55.20;;;;;;4951627;28;19930;-67
2023/05/31 12:40:20;;;;;;;;;;;26.20;56.20;;;;;;4955344;28;19927;-67
2023/05/31 12:42:59;;;;;;;;;;;26.30;56.80;;;;;;4942742;28;20284;-67
2023/05/31 12:45:31;;;;;;;;;;;26.40;55.30;;;;;;4944646;28;19931;-67
2023/05/31 12:48:03;;;;;;;;;;;26.50;54.80;;;;;;4966953;28;19937;-67
2023/05/31 12:50:34;;;;;;;;;;;26.60;52.50;;;;;;4972879;28;19930;-67
2023/05/31 12:53:05;;;;;;;;;;;26.60;53.70;;;;;;4965318;28;19926;-67
2023/05/31 12:55:36;;;;;;;;;;;26.60;53.70;;;;;;4966730;28;19933;-67
2023/05/31 12:58:03;;;;;;;;;;;26.80;53.40;;;;;;4971053;28;20029;-67
2023/05/31 13:00:36;;;;;;;;;;;26.90;53.50;;;;;;4972774;28;19972;-67
2023/05/31 13:03:13;;;;;;;;;;;26.90;52.10;;;;;;4975073;28;19948;-67
2023/05/31 13:05:45;;;;;;;;;;;27.10;52.70;;;;;;4957494;28;19926;-67
2023/05/31 13:08:16;;;;;;;;;;;27.10;52.00;;;;;;4972157;28;19926;-67
2023/05/31 13:10:48;;;;;;;;;;;27.20;51.80;;;;;;4939191;29;19930;-67
2023/05/31 13:13:20;;;;;;;;;;;27.40;51.90;;;;;;4963652;28;19927;-67
2023/05/31 13:15:47;;;;;;;;;;;27.50;52.70;;;;;;4953680;28;20022;-67
2023/05/31 13:18:19;;;;;;;;;;;27.70;50.80;;;;;;4968658;28;19926;-67
2023/05/31 13:20:51;;;;;;;;;;;27.70;50.70;;;;;;4942144;28;20045;-67
2023/05/31 13:23:23;;;;;;;;;;;27.70;51.00;;;;;;4955389;28;19926;-67
2023/05/31 13:25:55;;;;;;;;;;;27.80;50.80;;;;;;4962989;28;19948;-66
2023/05/31 13:28:27;;;;;;;;;;;27.80;49.30;;;;;;4962429;28;19932;-67
2023/05/31 13:30:58;;;;;;;;;;;28.00;50.10;;;;;;4941167;28;20029;-67
2023/05/31 13:33:30;;;;;;;;;;;28.00;48.90;;;;;;4945823;28;20025;-67
2023/05/31 13:35:58;;;;;;;;;;;28.10;48.30;;;;;;4966669;28;19926;-67
2023/05/31 13:38:30;;;;;;;;;;;28.10;49.00;;;;;;4963243;28;20406;-67
2023/05/31 13:41:02;;;;;;;;;;;28.30;49.00;;;;;;4969552;28;19931;-67
2023/05/31 13:43:33;;;;;;;;;;;28.30;48.80;;;;;;4972316;28;19997;-67
2023/05/31 13:46:09;;;;;;;;;;;28.40;48.40;;;;;;4967395;28;19946;-67
2023/05/31 13:48:41;;;;;;;;;;;28.60;49.10;;;;;;4962556;28;20432;-67
2023/05/31 13:51:12;;;;;;;;;;;28.70;49.20;;;;;;4968033;28;19930;-67
2023/05/31 13:53:44;;;;;;;;;;;28.60;48.70;;;;;;4941865;28;20394;-67
2023/05/31 13:56:16;;;;;;;;;;;28.60;48.90;;;;;;4957759;28;20508;-67
2023/05/31 13:58:48;;;;;;;;;;;28.70;48.80;;;;;;4959802;28;19953;-67
2023/05/31 14:01:19;;;;;;;;;;;28.80;50.60;;;;;;4964761;28;19931;-67
2023/05/31 14:03:46;;;;;;;;;;;28.90;50.30;;;;;;4963374;28;19927;-67
2023/05/31 14:06:18;;;;;;;;;;;28.90;49.70;;;;;;4954700;28;19926;-67
2023/05/31 14:08:50;;;;;;;;;;;29.10;48.00;;;;;;4955550;28;19930;-67
2023/05/31 14:11:17;;;;;;;;;;;29.00;48.10;;;;;;4955519;28;20009;-67
2023/05/31 14:13:49;;;;;;;;;;;28.80;49.00;;;;;;4959557;28;19946;-67
2023/05/31 14:16:20;;;;;;;;;;;29.10;49.70;;;;;;4957709;28;20291;-67
2023/05/31 14:18:52;;;;;;;;;;;29.30;48.20;;;;;;4950844;28;20525;-69
2023/05/31 14:21:24;;;;;;;;;;;29.50;49.30;;;;;;4955723;28;19926;-67
2023/05/31 14:23:51;;;;;;;;;;;29.50;46.90;;;;;;4971333;28;20313;-67
2023/05/31 14:26:23;;;;;;;;;;;29.60;47.20;;;;;;4969082;28;19936;-67
2023/05/31 14:28:49;;;;;;;;;;;29.60;47.90;;;;;;4968118;28;19932;-67
2023/05/31 14:31:21;;;;;;;;;;;29.70;48.40;;;;;;4965241;28;19926;-67
2023/05/31 14:33:53;;;;;;;;;;;29.70;45.90;;;;;;4950068;28;20016;-67
2023/05/31 14:36:25;;;;;;;;;;;29.60;46.30;;;;;;4953545;28;19927;-67
2023/05/31 14:38:56;;;;;;;;;;;29.70;47.60;;;;;;4941786;28;19927;-67
2023/05/31 14:41:28;;;;;;;;;;;29.80;47.00;;;;;;4957507;28;19926;-67
2023/05/31 14:44:00;;;;;;;;;;;30.00;47.10;;;;;;4965629;28;19960;-66
2023/05/31 14:46:32;;;;;;;;;;;30.00;46.60;;;;;;4955519;28;19930;-67
2023/05/31 14:48:59;;;;;;;;;;;30.00;46.30;;;;;;4964662;28;19965;-68